Meteógrafos Informações Meteorológicas em tempo real
Aeroporto de Londrina
15-12-2019 22:56

Temperatura atual: 22 graus 71 F    Umidade relativa: 94 %
Velocidade do vento: 08 nós 14 Km/h    Direção: 040 graus NE
Ajuste do altímetro ..: 1016 HPA
Visibilidade: Regular    Tempo presente: Chuva fraca e trovoadas

Observação
Poucas nuvens a 4000 Pés., Poucas nuvens a 4500 Pés.
Data Hora BRTTempo°CUmidadePressãoVentoVisib.
15/12 - 22:56   Chuva fraca e trovoadas 22° 94% 1016 Nordeste/14 km/h 5000
15/12 - 21:56   Chuva forte e trovoadas 23° 83% 1016 Este-nordeste/18 km/h 2000
15/12 - 20:56   Não Disponível 26° 69% 1014 Leste/3 km/h OK
15/12 - 19:56   Não Disponível 26° 69% 1014 Leste/3 km/h OK
15/12 - 18:56   Não Disponível 28° 74% 1014 Leste/9 km/h OK
15/12 - 17:55   Não Disponível 28° 70% 1014 Este-nordeste/10 km/h OK
15/12 - 16:56   Não Disponível 28° 74% 1014 Nordeste/7 km/h OK
15/12 - 15:56   Não Disponível 28° 74% 1015 Nordeste/10 km/h OK
15/12 - 14:56   Não Disponível 28° 70% 1016 Este-nordeste/14 km/h OK
15/12 - 13:56   Não Disponível 29° 66% 1016 Este-nordeste/16 km/h OK
15/12 - 12:56   Não Disponível 28° 70% 1016 Este-nordeste/16 km/h OK
15/12 - 11:56   Não Disponível 27° 78% 1016 Leste/12 km/h OK
15/12 - 10:56   Parcialmente Nublado 25° 83% 1017 Leste/12 km/h OK
15/12 - 09:56   Névoa úmida 22° 100% 1017 Este-sudeste/12 km/h 5000
15/12 - 08:56   Névoa úmida 20° 100% 1018 Este-sudeste/10 km/h 3000
15/12 - 07:56   Névoa úmida 20° 100% ND Este-sudeste/10 km/h 2000
15/12 - 06:56   Nevoeiro 20° 100% 1017 Sul/5 km/h 400
15/12 - 05:56   Chovendo fraco 20° 100% 1017 Este-sudeste/1 km/h 800
15/12 - 04:56   Chovendo fraco 20° 100% 1017 Noroeste/21 km/h 9000
15/12 - 03:56   Chovendo fraco 20° 93% 1018 Norte-nordeste/18 km/h 9000
15/12 - 02:56   Céu Limpo 22° 94% 1017 Norte/0 km/h OK
15/12 - 01:56   Céu Limpo 23° 88% 1017 Este-sudeste/5 km/h OK
15/12 - 00:56   Céu Limpo 23° 88% 1018 Sudeste/10 km/h OK
14/12 - 23:56   Céu Limpo 24° 88% 1018 Sudeste/10 km/h OK

Termo de Uso  |   Links Úteis  |   Imprensa  |  Anuncie  |  Fale Conosco  |  Versão Celular  |   Política de Privacidade

Apolo11.com - Todos os direitos reservados - 2000 - 2019

"Existem velas que iluminam tudo, menos o próprio candelabro" - Hebbel